sensor_id;sensor_type;location;lat;lon;timestamp;P1;P2;P0
73146;PMS7003;61345;48.922;2.244;2023-05-23T00:00:56;10.25;7.75;5.25
73146;PMS7003;61345;48.922;2.244;2023-05-23T00:03:22;8.00;6.00;4.00
73146;PMS7003;61345;48.922;2.244;2023-05-23T00:05:48;7.50;5.00;3.75
73146;PMS7003;61345;48.922;2.244;2023-05-23T00:08:14;7.00;7.00;4.75
73146;PMS7003;61345;48.922;2.244;2023-05-23T00:10:40;9.00;7.00;5.00
73146;PMS7003;61345;48.922;2.244;2023-05-23T00:13:05;9.00;6.00;4.00
73146;PMS7003;61345;48.922;2.244;2023-05-23T00:15:33;12.25;7.50;5.25
73146;PMS7003;61345;48.922;2.244;2023-05-23T00:17:58;5.50;5.50;3.25
73146;PMS7003;61345;48.922;2.244;2023-05-23T00:20:24;5.25;5.00;4.00
73146;PMS7003;61345;48.922;2.244;2023-05-23T00:22:49;11.67;7.00;5.00
73146;PMS7003;61345;48.922;2.244;2023-05-23T00:25:14;8.67;7.00;4.00
73146;PMS7003;61345;48.922;2.244;2023-05-23T00:27:39;8.00;7.00;5.00
73146;PMS7003;61345;48.922;2.244;2023-05-23T00:30:05;14.33;9.33;6.67
73146;PMS7003;61345;48.922;2.244;2023-05-23T00:32:30;13.00;8.00;5.75
73146;PMS7003;61345;48.922;2.244;2023-05-23T00:34:55;8.33;6.00;5.00
73146;PMS7003;61345;48.922;2.244;2023-05-23T00:37:21;6.00;5.00;4.00
73146;PMS7003;61345;48.922;2.244;2023-05-23T00:39:49;9.25;8.50;5.75
73146;PMS7003;61345;48.922;2.244;2023-05-23T00:42:14;8.75;5.75;3.75
73146;PMS7003;61345;48.922;2.244;2023-05-23T00:44:39;12.75;7.00;4.00
73146;PMS7003;61345;48.922;2.244;2023-05-23T00:47:04;10.33;7.00;5.67
73146;PMS7003;61345;48.922;2.244;2023-05-23T00:49:32;12.00;7.00;5.00
73146;PMS7003;61345;48.922;2.244;2023-05-23T00:51:57;11.25;6.00;3.75
73146;PMS7003;61345;48.922;2.244;2023-05-23T00:54:24;9.50;8.00;6.00
73146;PMS7003;61345;48.922;2.244;2023-05-23T00:56:51;9.00;7.00;5.00
73146;PMS7003;61345;48.922;2.244;2023-05-23T00:59:16;12.00;8.00;5.67
73146;PMS7003;61345;48.922;2.244;2023-05-23T01:01:41;16.67;9.00;6.00
73146;PMS7003;61345;48.922;2.244;2023-05-23T01:04:10;6.75;6.25;5.00
73146;PMS7003;61345;48.922;2.244;2023-05-23T01:06:37;14.75;7.50;5.75
73146;PMS7003;61345;48.922;2.244;2023-05-23T01:09:02;16.00;8.67;5.33
73146;PMS7003;61345;48.922;2.244;2023-05-23T01:11:37;10.75;8.50;6.00
73146;PMS7003;61345;48.922;2.244;2023-05-23T01:14:06;13.75;6.75;5.00
73146;PMS7003;61345;48.922;2.244;2023-05-23T01:16:46;9.75;6.75;4.00
73146;PMS7003;61345;48.922;2.244;2023-05-23T01:19:19;9.75;7.25;5.00
73146;PMS7003;61345;48.922;2.244;2023-05-23T01:21:52;10.50;7.75;7.00
73146;PMS7003;61345;48.922;2.244;2023-05-23T01:24:28;9.50;5.75;4.75
73146;PMS7003;61345;48.922;2.244;2023-05-23T01:29:44;15.50;10.25;6.75
73146;PMS7003;61345;48.922;2.244;2023-05-23T01:32:11;10.00;6.75;4.75
73146;PMS7003;61345;48.922;2.244;2023-05-23T01:34:37;12.25;6.00;4.00
73146;PMS7003;61345;48.922;2.244;2023-05-23T01:37:06;11.25;7.50;5.75
73146;PMS7003;61345;48.922;2.244;2023-05-23T01:39:32;14.50;11.25;6.00
73146;PMS7003;61345;48.922;2.244;2023-05-23T01:41:57;11.33;10.00;7.00
73146;PMS7003;61345;48.922;2.244;2023-05-23T01:44:22;13.33;10.00;7.00
73146;PMS7003;61345;48.922;2.244;2023-05-23T01:46:47;15.00;8.00;6.33
73146;PMS7003;61345;48.922;2.244;2023-05-23T01:49:13;12.33;7.33;6.00
73146;PMS7003;61345;48.922;2.244;2023-05-23T01:51:38;17.00;9.25;6.75
73146;PMS7003;61345;48.922;2.244;2023-05-23T01:54:04;13.00;8.50;6.00
73146;PMS7003;61345;48.922;2.244;2023-05-23T01:56:30;13.25;6.00;4.00
73146;PMS7003;61345;48.922;2.244;2023-05-23T01:58:55;10.00;7.25;5.00
73146;PMS7003;61345;48.922;2.244;2023-05-23T02:01:20;12.33;8.00;6.00
73146;PMS7003;61345;48.922;2.244;2023-05-23T02:03:46;14.50;11.00;6.25
73146;PMS7003;61345;48.922;2.244;2023-05-23T02:06:11;9.33;8.33;6.00
73146;PMS7003;61345;48.922;2.244;2023-05-23T02:08:36;9.67;7.00;5.00
73146;PMS7003;61345;48.922;2.244;2023-05-23T02:11:01;11.00;6.00;5.00
73146;PMS7003;61345;48.922;2.244;2023-05-23T02:13:27;10.50;7.50;6.00
73146;PMS7003;61345;48.922;2.244;2023-05-23T02:15:52;9.00;6.00;5.00
73146;PMS7003;61345;48.922;2.244;2023-05-23T02:18:17;11.33;8.00;6.00
73146;PMS7003;61345;48.922;2.244;2023-05-23T02:20:42;10.67;6.00;5.00
73146;PMS7003;61345;48.922;2.244;2023-05-23T02:23:08;11.67;9.00;5.00
73146;PMS7003;61345;48.922;2.244;2023-05-23T02:25:33;15.00;9.50;6.00
73146;PMS7003;61345;48.922;2.244;2023-05-23T02:27:58;12.00;6.00;4.00
73146;PMS7003;61345;48.922;2.244;2023-05-23T02:30:24;12.33;7.33;5.33
73146;PMS7003;61345;48.922;2.244;2023-05-23T02:32:49;15.33;9.00;5.67
73146;PMS7003;61345;48.922;2.244;2023-05-23T02:35:15;12.25;7.00;5.00
73146;PMS7003;61345;48.922;2.244;2023-05-23T02:37:40;6.50;6.00;4.50
73146;PMS7003;61345;48.922;2.244;2023-05-23T02:40:06;12.00;7.00;6.00
73146;PMS7003;61345;48.922;2.244;2023-05-23T02:42:32;8.25;6.50;4.25
73146;PMS7003;61345;48.922;2.244;2023-05-23T02:44:57;8.25;7.00;5.00
73146;PMS7003;61345;48.922;2.244;2023-05-23T02:47:22;16.33;8.67;6.67
73146;PMS7003;61345;48.922;2.244;2023-05-23T02:49:47;10.00;8.67;6.00
73146;PMS7003;61345;48.922;2.244;2023-05-23T02:52:12;9.67;7.00;4.00
73146;PMS7003;61345;48.922;2.244;2023-05-23T02:54:38;14.00;7.33;5.00
73146;PMS7003;61345;48.922;2.244;2023-05-23T02:57:03;9.00;8.00;4.67
73146;PMS7003;61345;48.922;2.244;2023-05-23T02:59:28;14.00;7.25;5.25
73146;PMS7003;61345;48.922;2.244;2023-05-23T03:01:54;9.50;6.75;5.25
73146;PMS7003;61345;48.922;2.244;2023-05-23T03:04:20;12.00;7.50;5.75
73146;PMS7003;61345;48.922;2.244;2023-05-23T03:06:45;15.50;7.50;5.00
73146;PMS7003;61345;48.922;2.244;2023-05-23T03:09:11;12.25;7.00;5.00
73146;PMS7003;61345;48.922;2.244;2023-05-23T03:11:36;11.00;9.67;5.00
73146;PMS7003;61345;48.922;2.244;2023-05-23T03:14:01;11.33;8.33;6.00
73146;PMS7003;61345;48.922;2.244;2023-05-23T03:16:27;14.33;9.00;6.67
73146;PMS7003;61345;48.922;2.244;2023-05-23T03:18:52;10.33;9.67;7.33
73146;PMS7003;61345;48.922;2.244;2023-05-23T03:21:17;11.33;6.00;5.00
73146;PMS7003;61345;48.922;2.244;2023-05-23T03:23:42;12.00;9.33;5.67
73146;PMS7003;61345;48.922;2.244;2023-05-23T03:26:08;10.00;6.75;4.75
73146;PMS7003;61345;48.922;2.244;2023-05-23T03:28:33;13.33;9.33;5.67
73146;PMS7003;61345;48.922;2.244;2023-05-23T03:30:58;10.67;9.67;6.33
73146;PMS7003;61345;48.922;2.244;2023-05-23T03:33:23;5.00;5.00;3.00
73146;PMS7003;61345;48.922;2.244;2023-05-23T03:35:49;10.00;7.67;5.67
73146;PMS7003;61345;48.922;2.244;2023-05-23T03:38:14;10.25;6.25;4.50
73146;PMS7003;61345;48.922;2.244;2023-05-23T03:40:39;10.67;9.00;5.67
73146;PMS7003;61345;48.922;2.244;2023-05-23T03:43:05;15.67;12.00;7.67
73146;PMS7003;61345;48.922;2.244;2023-05-23T03:45:31;8.25;5.25;4.00
73146;PMS7003;61345;48.922;2.244;2023-05-23T03:47:56;19.25;13.25;8.25
73146;PMS7003;61345;48.922;2.244;2023-05-23T03:50:21;12.00;11.00;6.00
73146;PMS7003;61345;48.922;2.244;2023-05-23T03:52:46;11.67;8.33;5.33
73146;PMS7003;61345;48.922;2.244;2023-05-23T03:55:12;14.00;9.00;6.00
73146;PMS7003;61345;48.922;2.244;2023-05-23T03:57:37;11.00;10.00;6.67
73146;PMS7003;61345;48.922;2.244;2023-05-23T04:00:03;9.00;6.33;4.00
73146;PMS7003;61345;48.922;2.244;2023-05-23T04:02:30;10.25;6.00;4.25
73146;PMS7003;61345;48.922;2.244;2023-05-23T04:04:56;11.50;9.25;5.50
73146;PMS7003;61345;48.922;2.244;2023-05-23T04:07:21;12.50;8.00;5.50
73146;PMS7003;61345;48.922;2.244;2023-05-23T04:09:47;9.00;6.00;4.00
73146;PMS7003;61345;48.922;2.244;2023-05-23T04:12:12;13.33;9.33;6.00
73146;PMS7003;61345;48.922;2.244;2023-05-23T04:14:37;13.00;6.00;5.00
73146;PMS7003;61345;48.922;2.244;2023-05-23T04:17:03;7.25;6.00;2.75
73146;PMS7003;61345;48.922;2.244;2023-05-23T04:19:28;6.50;6.00;4.25
73146;PMS7003;61345;48.922;2.244;2023-05-23T04:21:53;7.67;6.00;5.00
73146;PMS7003;61345;48.922;2.244;2023-05-23T04:24:19;10.67;7.33;4.67
73146;PMS7003;61345;48.922;2.244;2023-05-23T04:26:44;9.00;6.00;4.00
73146;PMS7003;61345;48.922;2.244;2023-05-23T04:29:09;11.33;6.00;4.67
73146;PMS7003;61345;48.922;2.244;2023-05-23T04:31:36;7.75;5.25;4.00
73146;PMS7003;61345;48.922;2.244;2023-05-23T04:34:01;6.33;6.33;4.33
73146;PMS7003;61345;48.922;2.244;2023-05-23T04:36:26;10.25;8.75;5.75
73146;PMS7003;61345;48.922;2.244;2023-05-23T04:38:51;5.33;5.33;4.33
73146;PMS7003;61345;48.922;2.244;2023-05-23T04:41:17;10.00;6.75;4.00
73146;PMS7003;61345;48.922;2.244;2023-05-23T04:43:47;9.25;6.00;3.25
73146;PMS7003;61345;48.922;2.244;2023-05-23T04:46:12;10.33;4.33;4.00
73146;PMS7003;61345;48.922;2.244;2023-05-23T04:48:37;7.75;6.75;4.00
73146;PMS7003;61345;48.922;2.244;2023-05-23T04:51:03;6.33;5.33;3.33
73146;PMS7003;61345;48.922;2.244;2023-05-23T04:53:33;4.25;4.00;3.00
73146;PMS7003;61345;48.922;2.244;2023-05-23T04:55:58;7.25;4.75;4.00
73146;PMS7003;61345;48.922;2.244;2023-05-23T04:58:24;9.00;5.00;3.33
73146;PMS7003;61345;48.922;2.244;2023-05-23T05:00:49;5.00;4.75;3.00
73146;PMS7003;61345;48.922;2.244;2023-05-23T05:03:14;9.00;6.00;4.50
73146;PMS7003;61345;48.922;2.244;2023-05-23T05:05:40;10.00;6.00;4.75
73146;PMS7003;61345;48.922;2.244;2023-05-23T05:08:05;5.25;4.00;3.25
73146;PMS7003;61345;48.922;2.244;2023-05-23T05:10:31;4.25;4.00;2.75
73146;PMS7003;61345;48.922;2.244;2023-05-23T05:12:56;11.33;9.00;5.00
73146;PMS7003;61345;48.922;2.244;2023-05-23T05:15:21;8.33;6.00;4.00
73146;PMS7003;61345;48.922;2.244;2023-05-23T05:17:47;7.25;3.00;3.00
73146;PMS7003;61345;48.922;2.244;2023-05-23T05:20:12;6.00;4.67;3.33
73146;PMS7003;61345;48.922;2.244;2023-05-23T05:22:38;6.00;4.00;3.00
73146;PMS7003;61345;48.922;2.244;2023-05-23T05:25:07;5.50;5.00;3.50
73146;PMS7003;61345;48.922;2.244;2023-05-23T05:27:32;7.25;5.00;3.00
73146;PMS7003;61345;48.922;2.244;2023-05-23T05:29:58;9.00;5.00;3.00
73146;PMS7003;61345;48.922;2.244;2023-05-23T05:32:28;8.25;6.00;4.00
73146;PMS7003;61345;48.922;2.244;2023-05-23T05:34:55;8.75;4.50;3.25
73146;PMS7003;61345;48.922;2.244;2023-05-23T05:37:20;7.33;5.00;3.67
73146;PMS7003;61345;48.922;2.244;2023-05-23T05:39:46;9.75;4.00;3.00
73146;PMS7003;61345;48.922;2.244;2023-05-23T05:42:11;5.50;3.00;3.00
73146;PMS7003;61345;48.922;2.244;2023-05-23T05:44:37;5.00;4.00;3.00
73146;PMS7003;61345;48.922;2.244;2023-05-23T05:47:02;5.33;4.67;3.00
73146;PMS7003;61345;48.922;2.244;2023-05-23T05:49:27;10.33;3.33;2.33
73146;PMS7003;61345;48.922;2.244;2023-05-23T05:51:52;7.33;4.00;4.00
73146;PMS7003;61345;48.922;2.244;2023-05-23T05:54:17;7.67;5.00;4.00
73146;PMS7003;61345;48.922;2.244;2023-05-23T05:56:42;6.67;4.00;3.00
73146;PMS7003;61345;48.922;2.244;2023-05-23T05:59:08;2.67;2.00;1.00
73146;PMS7003;61345;48.922;2.244;2023-05-23T06:01:33;4.33;3.67;3.00
73146;PMS7003;61345;48.922;2.244;2023-05-23T06:03:58;6.00;4.00;3.00
73146;PMS7003;61345;48.922;2.244;2023-05-23T06:06:24;7.00;7.00;5.00
73146;PMS7003;61345;48.922;2.244;2023-05-23T06:08:49;6.00;4.00;3.00
73146;PMS7003;61345;48.922;2.244;2023-05-23T06:11:14;10.00;5.00;4.00
73146;PMS7003;61345;48.922;2.244;2023-05-23T06:13:40;8.75;5.00;4.00
73146;PMS7003;61345;48.922;2.244;2023-05-23T06:16:05;4.67;3.33;2.33
73146;PMS7003;61345;48.922;2.244;2023-05-23T06:18:30;4.00;4.00;3.00
73146;PMS7003;61345;48.922;2.244;2023-05-23T06:20:56;9.00;4.67;3.00
73146;PMS7003;61345;48.922;2.244;2023-05-23T06:23:21;10.33;4.00;2.67
73146;PMS7003;61345;48.922;2.244;2023-05-23T06:25:46;7.33;3.33;3.00
73146;PMS7003;61345;48.922;2.244;2023-05-23T06:28:11;6.67;5.00;4.00
73146;PMS7003;61345;48.922;2.244;2023-05-23T06:30:36;4.67;4.33;3.33
73146;PMS7003;61345;48.922;2.244;2023-05-23T06:33:02;8.00;4.50;3.25
73146;PMS7003;61345;48.922;2.244;2023-05-23T06:35:28;8.67;5.00;4.00
73146;PMS7003;61345;48.922;2.244;2023-05-23T06:37:53;11.33;5.67;4.00
73146;PMS7003;61345;48.922;2.244;2023-05-23T06:40:18;8.00;5.00;4.00
73146;PMS7003;61345;48.922;2.244;2023-05-23T06:42:43;8.00;7.00;4.00
73146;PMS7003;61345;48.922;2.244;2023-05-23T06:45:08;7.50;4.00;3.00
73146;PMS7003;61345;48.922;2.244;2023-05-23T06:47:34;5.00;2.00;0.25
73146;PMS7003;61345;48.922;2.244;2023-05-23T06:49:59;6.00;5.00;4.00
73146;PMS7003;61345;48.922;2.244;2023-05-23T06:52:24;6.33;6.33;5.00
73146;PMS7003;61345;48.922;2.244;2023-05-23T06:54:50;10.67;6.00;4.00
73146;PMS7003;61345;48.922;2.244;2023-05-23T06:57:15;9.00;6.25;4.25
73146;PMS7003;61345;48.922;2.244;2023-05-23T06:59:40;8.50;5.50;4.50
73146;PMS7003;61345;48.922;2.244;2023-05-23T07:02:05;12.00;6.33;5.00
73146;PMS7003;61345;48.922;2.244;2023-05-23T07:04:30;10.00;5.67;4.33
73146;PMS7003;61345;48.922;2.244;2023-05-23T07:06:56;11.33;5.33;4.33
73146;PMS7003;61345;48.922;2.244;2023-05-23T07:09:21;10.67;8.67;5.00
73146;PMS7003;61345;48.922;2.244;2023-05-23T07:11:46;5.67;5.67;4.00
73146;PMS7003;61345;48.922;2.244;2023-05-23T07:14:11;7.33;5.00;4.00
73146;PMS7003;61345;48.922;2.244;2023-05-23T07:16:36;10.67;6.67;5.00
73146;PMS7003;61345;48.922;2.244;2023-05-23T07:19:02;6.00;5.00;3.33
73146;PMS7003;61345;48.922;2.244;2023-05-23T07:21:27;7.25;5.00;3.00
73146;PMS7003;61345;48.922;2.244;2023-05-23T07:23:52;8.00;5.33;3.00
73146;PMS7003;61345;48.922;2.244;2023-05-23T07:26:17;4.67;4.33;3.67
73146;PMS7003;61345;48.922;2.244;2023-05-23T07:28:42;4.33;4.00;3.00
73146;PMS7003;61345;48.922;2.244;2023-05-23T07:31:08;5.25;3.75;3.00
73146;PMS7003;61345;48.922;2.244;2023-05-23T07:33:33;7.00;4.25;3.00
73146;PMS7003;61345;48.922;2.244;2023-05-23T07:35:59;9.00;4.67;3.00
73146;PMS7003;61345;48.922;2.244;2023-05-23T07:38:25;7.75;5.00;4.00
73146;PMS7003;61345;48.922;2.244;2023-05-23T07:40:50;6.00;5.00;4.00
73146;PMS7003;61345;48.922;2.244;2023-05-23T07:43:15;7.67;4.33;3.00
73146;PMS7003;61345;48.922;2.244;2023-05-23T07:45:41;3.67;3.00;2.00
73146;PMS7003;61345;48.922;2.244;2023-05-23T07:48:07;2.67;2.67;2.33
73146;PMS7003;61345;48.922;2.244;2023-05-23T07:50:32;11.75;4.00;4.00
73146;PMS7003;61345;48.922;2.244;2023-05-23T07:52:57;5.00;4.00;2.33
73146;PMS7003;61345;48.922;2.244;2023-05-23T07:55:22;4.67;3.33;3.00
73146;PMS7003;61345;48.922;2.244;2023-05-23T07:57:48;5.50;5.50;4.50
73146;PMS7003;61345;48.922;2.244;2023-05-23T08:00:13;10.00;5.67;4.00
73146;PMS7003;61345;48.922;2.244;2023-05-23T08:02:39;5.00;5.00;3.00
73146;PMS7003;61345;48.922;2.244;2023-05-23T08:05:04;8.33;5.00;4.00
73146;PMS7003;61345;48.922;2.244;2023-05-23T08:07:29;10.00;5.50;4.25
73146;PMS7003;61345;48.922;2.244;2023-05-23T08:09:54;8.33;6.00;4.67
73146;PMS7003;61345;48.922;2.244;2023-05-23T08:12:20;9.67;4.00;3.00
73146;PMS7003;61345;48.922;2.244;2023-05-23T08:14:45;6.00;4.00;3.00
73146;PMS7003;61345;48.922;2.244;2023-05-23T08:17:11;11.33;6.00;5.00
73146;PMS7003;61345;48.922;2.244;2023-05-23T08:19:36;4.75;4.75;3.25
73146;PMS7003;61345;48.922;2.244;2023-05-23T08:22:01;9.00;5.25;4.00
73146;PMS7003;61345;48.922;2.244;2023-05-23T08:24:28;7.00;7.00;5.00
73146;PMS7003;61345;48.922;2.244;2023-05-23T08:26:54;6.50;4.75;3.25
73146;PMS7003;61345;48.922;2.244;2023-05-23T08:29:19;6.00;4.33;3.33
73146;PMS7003;61345;48.922;2.244;2023-05-23T08:31:45;10.75;5.50;4.25
73146;PMS7003;61345;48.922;2.244;2023-05-23T08:34:10;7.50;5.25;4.25
73146;PMS7003;61345;48.922;2.244;2023-05-23T08:36:36;8.00;6.00;5.00
73146;PMS7003;61345;48.922;2.244;2023-05-23T08:39:03;12.50;5.75;4.00
73146;PMS7003;61345;48.922;2.244;2023-05-23T08:41:29;9.33;6.67;5.00
73146;PMS7003;61345;48.922;2.244;2023-05-23T08:43:54;13.00;10.25;6.00
73146;PMS7003;61345;48.922;2.244;2023-05-23T08:46:20;10.50;8.75;6.50
73146;PMS7003;61345;48.922;2.244;2023-05-23T08:48:49;10.25;8.50;4.75
73146;PMS7003;61345;48.922;2.244;2023-05-23T08:51:15;10.00;4.50;2.50
73146;PMS7003;61345;48.922;2.244;2023-05-23T08:53:41;12.75;7.25;4.75
73146;PMS7003;61345;48.922;2.244;2023-05-23T08:56:11;14.50;7.75;6.00
73146;PMS7003;61345;48.922;2.244;2023-05-23T08:58:36;12.00;7.25;4.25
73146;PMS7003;61345;48.922;2.244;2023-05-23T09:01:02;6.00;4.00;3.75
73146;PMS7003;61345;48.922;2.244;2023-05-23T09:03:28;8.33;6.00;4.00
73146;PMS7003;61345;48.922;2.244;2023-05-23T09:05:53;9.75;5.00;4.00
73146;PMS7003;61345;48.922;2.244;2023-05-23T09:08:19;13.25;10.00;6.25
73146;PMS7003;61345;48.922;2.244;2023-05-23T09:10:44;6.75;4.75;3.00
73146;PMS7003;61345;48.922;2.244;2023-05-23T09:13:10;11.75;5.00;4.00
73146;PMS7003;61345;48.922;2.244;2023-05-23T09:15:35;14.50;6.25;3.25
73146;PMS7003;61345;48.922;2.244;2023-05-23T09:18:01;8.75;3.50;2.50
73146;PMS7003;61345;48.922;2.244;2023-05-23T09:20:27;11.75;5.75;4.50
73146;PMS7003;61345;48.922;2.244;2023-05-23T09:22:53;13.00;7.25;5.00
73146;PMS7003;61345;48.922;2.244;2023-05-23T09:25:18;5.00;5.00;4.00
73146;PMS7003;61345;48.922;2.244;2023-05-23T09:27:44;11.00;6.75;4.75
73146;PMS7003;61345;48.922;2.244;2023-05-23T09:30:09;8.00;6.67;4.33
73146;PMS7003;61345;48.922;2.244;2023-05-23T09:32:35;11.00;6.50;4.00
73146;PMS7003;61345;48.922;2.244;2023-05-23T09:35:03;12.00;8.00;5.25
73146;PMS7003;61345;48.922;2.244;2023-05-23T09:37:33;10.00;6.25;4.00
73146;PMS7003;61345;48.922;2.244;2023-05-23T09:40:04;15.00;7.00;5.25
73146;PMS7003;61345;48.922;2.244;2023-05-23T09:42:30;7.00;6.00;4.00
73146;PMS7003;61345;48.922;2.244;2023-05-23T09:44:57;6.75;6.00;4.00
73146;PMS7003;61345;48.922;2.244;2023-05-23T09:47:22;7.00;6.00;4.00
73146;PMS7003;61345;48.922;2.244;2023-05-23T09:49:47;5.33;4.33;4.00
73146;PMS7003;61345;48.922;2.244;2023-05-23T09:52:13;11.00;6.75;4.50
73146;PMS7003;61345;48.922;2.244;2023-05-23T09:54:38;13.67;6.00;4.00
73146;PMS7003;61345;48.922;2.244;2023-05-23T09:57:04;6.75;5.50;4.00
73146;PMS7003;61345;48.922;2.244;2023-05-23T09:59:34;10.50;7.00;5.00
73146;PMS7003;61345;48.922;2.244;2023-05-23T10:02:01;8.75;6.75;5.00
73146;PMS7003;61345;48.922;2.244;2023-05-23T10:04:30;11.00;5.75;5.00
73146;PMS7003;61345;48.922;2.244;2023-05-23T10:06:58;6.50;5.25;4.00
73146;PMS7003;61345;48.922;2.244;2023-05-23T10:09:25;8.25;7.25;5.00
73146;PMS7003;61345;48.922;2.244;2023-05-23T10:14:17;5.50;5.50;4.25
73146;PMS7003;61345;48.922;2.244;2023-05-23T10:16:46;7.00;7.00;6.00
73146;PMS7003;61345;48.922;2.244;2023-05-23T10:19:24;12.00;5.50;4.00
73146;PMS7003;61345;48.922;2.244;2023-05-23T10:21:54;10.75;3.25;3.00
73146;PMS7003;61345;48.922;2.244;2023-05-23T10:24:20;11.25;5.00;3.25
73146;PMS7003;61345;48.922;2.244;2023-05-23T10:26:46;10.75;7.00;5.25
73146;PMS7003;61345;48.922;2.244;2023-05-23T10:29:12;7.25;5.50;4.50
73146;PMS7003;61345;48.922;2.244;2023-05-23T10:31:37;8.50;5.75;4.25
73146;PMS7003;61345;48.922;2.244;2023-05-23T10:37:06;9.50;5.00;4.00
73146;PMS7003;61345;48.922;2.244;2023-05-23T10:42:07;12.00;3.25;2.00
73146;PMS7003;61345;48.922;2.244;2023-05-23T10:44:35;13.25;6.50;4.00
73146;PMS7003;61345;48.922;2.244;2023-05-23T10:47:00;7.50;4.50;3.25
73146;PMS7003;61345;48.922;2.244;2023-05-23T10:49:41;8.75;5.00;3.00
73146;PMS7003;61345;48.922;2.244;2023-05-23T10:52:07;10.25;6.25;5.00
73146;PMS7003;61345;48.922;2.244;2023-05-23T10:54:49;6.75;6.00;4.00
73146;PMS7003;61345;48.922;2.244;2023-05-23T10:57:15;8.50;5.25;4.00
73146;PMS7003;61345;48.922;2.244;2023-05-23T10:59:41;6.00;4.50;3.00
73146;PMS7003;61345;48.922;2.244;2023-05-23T11:02:09;8.00;5.50;3.50
73146;PMS7003;61345;48.922;2.244;2023-05-23T11:04:36;5.50;5.00;3.25
73146;PMS7003;61345;48.922;2.244;2023-05-23T11:07:01;6.00;5.00;3.00
73146;PMS7003;61345;48.922;2.244;2023-05-23T11:09:26;7.00;5.25;4.25
73146;PMS7003;61345;48.922;2.244;2023-05-23T11:11:52;5.33;4.00;3.00
73146;PMS7003;61345;48.922;2.244;2023-05-23T11:15:17;9.75;6.50;4.00
73146;PMS7003;61345;48.922;2.244;2023-05-23T11:17:16;9.00;4.00;3.00
73146;PMS7003;61345;48.922;2.244;2023-05-23T11:19:58;9.50;5.50;4.25
73146;PMS7003;61345;48.922;2.244;2023-05-23T11:22:27;6.50;4.00;3.50
73146;PMS7003;61345;48.922;2.244;2023-05-23T11:24:56;7.00;5.25;3.75
73146;PMS7003;61345;48.922;2.244;2023-05-23T11:32:29;6.50;6.50;4.50
73146;PMS7003;61345;48.922;2.244;2023-05-23T11:34:57;7.75;7.25;4.00
73146;PMS7003;61345;48.922;2.244;2023-05-23T11:37:22;7.00;6.00;3.00
73146;PMS7003;61345;48.922;2.244;2023-05-23T11:39:49;8.00;5.25;4.25
73146;PMS7003;61345;48.922;2.244;2023-05-23T11:42:15;4.00;4.00;3.67
73146;PMS7003;61345;48.922;2.244;2023-05-23T11:44:40;8.33;6.00;3.00
73146;PMS7003;61345;48.922;2.244;2023-05-23T11:47:05;8.33;6.33;4.00
73146;PMS7003;61345;48.922;2.244;2023-05-23T11:49:34;8.25;5.50;3.50
73146;PMS7003;61345;48.922;2.244;2023-05-23T11:52:00;8.00;7.00;4.00
73146;PMS7003;61345;48.922;2.244;2023-05-23T11:54:26;7.00;5.75;4.00
73146;PMS7003;61345;48.922;2.244;2023-05-23T11:56:52;6.75;6.00;4.75
73146;PMS7003;61345;48.922;2.244;2023-05-23T11:59:17;9.75;6.75;4.75
73146;PMS7003;61345;48.922;2.244;2023-05-23T12:01:42;6.67;5.00;3.00
73146;PMS7003;61345;48.922;2.244;2023-05-23T12:04:08;6.33;6.33;4.00
73146;PMS7003;61345;48.922;2.244;2023-05-23T12:06:33;11.00;7.00;4.50
73146;PMS7003;61345;48.922;2.244;2023-05-23T12:08:59;5.00;5.00;4.00
73146;PMS7003;61345;48.922;2.244;2023-05-23T12:11:24;5.25;5.25;4.00
73146;PMS7003;61345;48.922;2.244;2023-05-23T12:13:51;7.25;4.50;3.25
73146;PMS7003;61345;48.922;2.244;2023-05-23T12:16:16;5.25;4.00;3.00
73146;PMS7003;61345;48.922;2.244;2023-05-23T12:18:41;6.00;6.00;5.00
73146;PMS7003;61345;48.922;2.244;2023-05-23T12:21:06;4.00;4.00;3.00
73146;PMS7003;61345;48.922;2.244;2023-05-23T12:23:32;7.00;3.00;2.00
73146;PMS7003;61345;48.922;2.244;2023-05-23T12:25:57;6.75;5.75;3.50
73146;PMS7003;61345;48.922;2.244;2023-05-23T12:28:44;5.67;4.67;4.00
73146;PMS7003;61345;48.922;2.244;2023-05-23T12:31:13;7.50;5.75;4.00
73146;PMS7003;61345;48.922;2.244;2023-05-23T12:33:40;4.75;4.00;3.00
73146;PMS7003;61345;48.922;2.244;2023-05-23T12:36:09;4.50;2.50;2.00
73146;PMS7003;61345;48.922;2.244;2023-05-23T12:38:35;10.25;4.00;3.25
73146;PMS7003;61345;48.922;2.244;2023-05-23T12:41:14;4.75;3.75;3.00
73146;PMS7003;61345;48.922;2.244;2023-05-23T12:43:40;2.25;2.25;2.00
73146;PMS7003;61345;48.922;2.244;2023-05-23T12:46:08;4.75;4.50;3.50
73146;PMS7003;61345;48.922;2.244;2023-05-23T12:48:34;4.50;3.75;3.00
73146;PMS7003;61345;48.922;2.244;2023-05-23T12:50:59;5.25;4.75;3.00
73146;PMS7003;61345;48.922;2.244;2023-05-23T12:53:26;7.25;4.00;3.00
73146;PMS7003;61345;48.922;2.244;2023-05-23T12:55:52;4.75;4.00;3.00
73146;PMS7003;61345;48.922;2.244;2023-05-23T12:58:17;5.33;4.00;3.00
73146;PMS7003;61345;48.922;2.244;2023-05-23T13:00:42;5.00;3.33;3.00
73146;PMS7003;61345;48.922;2.244;2023-05-23T13:03:07;5.00;1.67;1.33
73146;PMS7003;61345;48.922;2.244;2023-05-23T13:05:33;4.00;2.75;2.00
73146;PMS7003;61345;48.922;2.244;2023-05-23T13:07:58;2.00;1.75;1.00
73146;PMS7003;61345;48.922;2.244;2023-05-23T13:10:24;2.50;2.00;1.50
73146;PMS7003;61345;48.922;2.244;2023-05-23T13:12:49;5.33;2.00;1.67
73146;PMS7003;61345;48.922;2.244;2023-05-23T13:15:14;4.00;2.00;2.00
73146;PMS7003;61345;48.922;2.244;2023-05-23T13:17:39;3.00;2.00;1.00
73146;PMS7003;61345;48.922;2.244;2023-05-23T13:20:05;5.00;1.00;1.00
73146;PMS7003;61345;48.922;2.244;2023-05-23T13:22:31;4.00;2.00;2.00
73146;PMS7003;61345;48.922;2.244;2023-05-23T13:24:56;3.67;2.00;1.00
73146;PMS7003;61345;48.922;2.244;2023-05-23T13:27:21;4.00;1.00;1.00
73146;PMS7003;61345;48.922;2.244;2023-05-23T13:29:46;5.00;3.00;1.33
73146;PMS7003;61345;48.922;2.244;2023-05-23T13:32:12;6.00;5.00;2.50
73146;PMS7003;61345;48.922;2.244;2023-05-23T13:34:37;3.33;1.33;0.67
73146;PMS7003;61345;48.922;2.244;2023-05-23T13:37:02;4.67;4.33;2.67
73146;PMS7003;61345;48.922;2.244;2023-05-23T13:39:28;3.00;2.75;2.00
73146;PMS7003;61345;48.922;2.244;2023-05-23T13:41:53;3.33;2.00;1.00
73146;PMS7003;61345;48.922;2.244;2023-05-23T13:44:18;2.67;2.67;1.67
73146;PMS7003;61345;48.922;2.244;2023-05-23T13:46:44;6.00;2.00;1.33
73146;PMS7003;61345;48.922;2.244;2023-05-23T13:49:09;5.67;3.00;2.00
73146;PMS7003;61345;48.922;2.244;2023-05-23T13:51:34;6.33;2.00;1.00
73146;PMS7003;61345;48.922;2.244;2023-05-23T13:54:01;2.00;2.00;1.50
73146;PMS7003;61345;48.922;2.244;2023-05-23T13:56:27;6.25;2.00;1.00
73146;PMS7003;61345;48.922;2.244;2023-05-23T13:58:52;4.25;2.00;1.50
73146;PMS7003;61345;48.922;2.244;2023-05-23T14:01:17;7.00;2.67;2.33
73146;PMS7003;61345;48.922;2.244;2023-05-23T14:03:42;4.67;2.67;2.00
73146;PMS7003;61345;48.922;2.244;2023-05-23T14:06:07;4.33;4.33;2.33
73146;PMS7003;61345;48.922;2.244;2023-05-23T14:08:33;4.00;2.67;2.00
73146;PMS7003;61345;48.922;2.244;2023-05-23T14:10:58;2.75;2.75;1.25
73146;PMS7003;61345;48.922;2.244;2023-05-23T14:13:23;6.67;3.00;2.00
73146;PMS7003;61345;48.922;2.244;2023-05-23T14:15:49;2.50;2.50;1.75
73146;PMS7003;61345;48.922;2.244;2023-05-23T14:18:15;6.00;2.00;1.25
73146;PMS7003;61345;48.922;2.244;2023-05-23T14:20:40;3.67;2.00;1.00
73146;PMS7003;61345;48.922;2.244;2023-05-23T14:23:05;5.00;2.00;2.00
73146;PMS7003;61345;48.922;2.244;2023-05-23T14:25:30;3.00;2.00;1.33
73146;PMS7003;61345;48.922;2.244;2023-05-23T14:27:56;1.50;1.00;0.25